Cap-Aux-Meules, Canada
Current Conditions -  °F | °C
As of 2:13 PM on Thursday 18 Dec 2014 (Local Time) from CYGR Reporting Station
Overcast Overcast  
Wind Chill: 32°   Ceiling: 700
Heat Index: 41°   Visibility: 15mi
Dew Point: 39°   Wind: 21mph
Humidity: 93%   Direction: 170°S
Pressure: 29.39"   Gusts: 28mph
Location:  47.38°N, 61.87°W
Report Text: CYGR 181813Z 17018G24KT 15SM BKN007 OVC010 05/04 A2939 RMK SF7SC1 SLP953
Loading
Personal Weather Stations






























Interactive Weather Map New forecast layout! Learn more

10-Day Weather Forecast

Advertisements
Track Severe Weather on mobile